createdAt,value
2019-05-03T00:01:42.856Z,99898.88
2019-05-03T00:04:51.618Z,99889.66
2019-05-03T00:10:51.772Z,99885.50
2019-05-03T00:13:21.902Z,99889.59
2019-05-03T00:18:45.461Z,99894.73
2019-05-03T00:21:33.207Z,99890.95
2019-05-03T00:24:42.711Z,99892.19
2019-05-03T00:27:12.514Z,99903.50
2019-05-03T00:29:41.926Z,99908.81
2019-05-03T00:32:32.080Z,99907.58
2019-05-03T00:35:22.580Z,99908.70
2019-05-03T00:40:41.711Z,99899.97
2019-05-03T00:43:11.596Z,99903.73
2019-05-03T00:45:42.129Z,99904.41
2019-05-03T00:48:12.315Z,99905.99
2019-05-03T00:50:59.771Z,99900.13
2019-05-03T00:53:28.167Z,99907.23
2019-05-03T00:55:56.568Z,99907.11
2019-05-03T00:58:44.076Z,99906.83
2019-05-03T01:03:52.614Z,99907.10
2019-05-03T01:06:42.253Z,99903.84
2019-05-03T01:12:18.744Z,99907.89
2019-05-03T01:15:06.248Z,99919.81
2019-05-03T01:20:49.714Z,99912.92
2019-05-03T01:26:05.543Z,99919.84
2019-05-03T01:28:53.182Z,99921.31
2019-05-03T01:31:42.162Z,99914.73
2019-05-03T01:34:12.489Z,99917.05
2019-05-03T01:36:42.724Z,99913.84
2019-05-03T01:39:12.773Z,99911.08
2019-05-03T01:42:02.621Z,99914.72
2019-05-03T01:44:32.590Z,99913.67
2019-05-03T01:49:58.910Z,99912.39
2019-05-03T01:55:46.581Z,99918.08
2019-05-03T01:58:16.266Z,99916.84
2019-05-03T02:01:23.044Z,99916.36
2019-05-03T02:04:12.238Z,99912.20
2019-05-03T02:06:42.417Z,99921.30
2019-05-03T02:09:12.231Z,99920.66
2019-05-03T02:12:02.000Z,99920.77
2019-05-03T02:14:31.709Z,99922.38
2019-05-03T02:17:01.805Z,99925.61
2019-05-03T02:19:32.539Z,99928.50
2019-05-03T02:22:02.713Z,99929.94
2019-05-03T02:24:49.992Z,99929.81
2019-05-03T02:27:18.384Z,99925.48
2019-05-03T02:29:46.768Z,99928.23
2019-05-03T02:34:49.107Z,99928.81
2019-05-03T02:40:53.242Z,99935.11
2019-05-03T02:44:02.101Z,99944.11
2019-05-03T02:46:49.624Z,99948.63
2019-05-03T02:52:45.813Z,99945.17
2019-05-03T02:55:56.060Z,99946.50
2019-05-03T02:58:25.333Z,99941.66
2019-05-03T03:01:16.264Z,99953.80
2019-05-03T03:04:25.972Z,99955.31
2019-05-03T03:07:33.877Z,99953.16
2019-05-03T03:10:45.333Z,99952.31
2019-05-03T03:13:54.821Z,99950.30
2019-05-03T03:17:02.244Z,99954.13
2019-05-03T03:20:10.551Z,99952.55
2019-05-03T03:23:18.864Z,99955.18
2019-05-03T03:26:37.452Z,99968.17
2019-05-03T03:29:37.226Z,99971.50
2019-05-03T03:32:48.260Z,99967.77
2019-05-03T03:36:01.101Z,99966.79
2019-05-03T03:38:26.255Z,99967.03
2019-05-03T03:41:35.773Z,99972.12
2019-05-03T03:47:38.766Z,99977.26
2019-05-03T03:50:47.070Z,99978.64
2019-05-03T03:53:55.694Z,99979.05
2019-05-03T03:57:08.028Z,99990.25
2019-05-03T04:00:16.284Z,99987.20
2019-05-03T04:08:36.013Z,100005.83
2019-05-03T04:14:51.924Z,100002.15
2019-05-03T04:17:58.792Z,100008.28
2019-05-03T04:23:55.622Z,100022.84
2019-05-03T04:26:29.437Z,100028.70
2019-05-03T04:29:35.620Z,100028.50
2019-05-03T04:32:45.499Z,100029.16
2019-05-03T04:35:16.443Z,100031.11
2019-05-03T04:37:45.519Z,100028.39
2019-05-03T04:40:15.814Z,100029.30
2019-05-03T04:42:46.352Z,100032.25
2019-05-03T04:45:16.483Z,100037.06
2019-05-03T04:48:05.915Z,100035.68
2019-05-03T04:51:16.688Z,100045.39
2019-05-03T04:56:25.884Z,100052.14
2019-05-03T04:58:55.925Z,100059.72
2019-05-03T05:01:26.110Z,100060.25
2019-05-03T05:03:55.878Z,100064.19
2019-05-03T05:06:25.742Z,100064.03
2019-05-03T05:08:55.230Z,100076.81
2019-05-03T05:11:26.269Z,100080.47
2019-05-03T05:13:56.018Z,100079.94
2019-05-03T05:16:46.543Z,100081.15
2019-05-03T05:24:29.164Z,100105.51
2019-05-03T05:27:16.681Z,100111.87
2019-05-03T05:29:45.174Z,100107.00
2019-05-03T05:32:14.454Z,100119.16
2019-05-03T05:34:43.708Z,100115.34
2019-05-03T05:37:24.974Z,100117.75
2019-05-03T05:40:12.751Z,100119.38
2019-05-03T05:43:00.389Z,100115.77
2019-05-03T05:45:28.789Z,100115.64
2019-05-03T05:48:16.351Z,100114.62
2019-05-03T05:53:54.774Z,100116.66
2019-05-03T05:56:44.427Z,100127.77
2019-05-03T06:02:07.059Z,100126.87
2019-05-03T06:04:35.462Z,100133.63
2019-05-03T06:07:24.839Z,100133.16
2019-05-03T06:13:06.572Z,100142.03
2019-05-03T06:15:54.793Z,100138.08
2019-05-03T06:19:04.653Z,100147.70
2019-05-03T06:21:54.856Z,100153.69
2019-05-03T06:24:42.600Z,100162.02
2019-05-03T06:27:30.120Z,100163.67
2019-05-03T06:32:56.702Z,100171.34
2019-05-03T06:35:25.104Z,100171.91
2019-05-03T06:38:06.025Z,100165.45
2019-05-03T06:40:35.368Z,100167.17
2019-05-03T06:43:24.494Z,100163.73
2019-05-03T06:48:31.895Z,100165.69
2019-05-03T06:51:00.223Z,100155.24
2019-05-03T06:53:50.518Z,100160.57
2019-05-03T06:56:19.331Z,100170.03
2019-05-03T06:58:47.172Z,100168.91
2019-05-03T07:04:15.226Z,100181.42
2019-05-03T07:09:52.093Z,100165.05
2019-05-03T07:12:20.488Z,100166.91
2019-05-03T07:15:08.146Z,100163.89
2019-05-03T07:17:36.549Z,100161.77
2019-05-03T07:20:44.859Z,100153.62
2019-05-03T07:23:15.418Z,100147.48
2019-05-03T07:25:44.806Z,100144.87
2019-05-03T07:28:14.966Z,100152.73
2019-05-03T07:31:04.649Z,100150.22
2019-05-03T07:36:25.082Z,100151.64
2019-05-03T07:38:52.094Z,100150.36
2019-05-03T07:41:20.495Z,100153.01
2019-05-03T07:43:48.902Z,100151.41
2019-05-03T07:46:17.312Z,100156.30
2019-05-03T07:49:05.147Z,100155.50
2019-05-03T07:51:55.173Z,100149.74
2019-05-03T07:54:42.189Z,100139.41
2019-05-03T07:57:48.968Z,100148.78
2019-05-03T08:01:06.035Z,100145.83
2019-05-03T08:03:27.430Z,100144.77
2019-05-03T08:05:55.826Z,100132.48
2019-05-03T08:08:25.052Z,100138.53
2019-05-03T08:10:54.976Z,100142.64
2019-05-03T08:13:25.248Z,100145.10
2019-05-03T08:15:55.798Z,100155.34
2019-05-03T08:18:45.731Z,100149.45
2019-05-03T08:21:14.893Z,100151.73
2019-05-03T08:26:52.153Z,100152.23
2019-05-03T08:29:39.659Z,100148.80
2019-05-03T08:32:27.186Z,100154.90
2019-05-03T08:35:15.308Z,100155.55
2019-05-03T08:43:28.576Z,100143.82
2019-05-03T08:46:16.232Z,100150.48
2019-05-03T08:49:05.242Z,100149.02
2019-05-03T08:54:08.604Z,100144.71
2019-05-03T08:56:56.278Z,100143.73
2019-05-03T08:59:44.602Z,100140.42
2019-05-03T09:02:17.371Z,100142.32
2019-05-03T09:04:46.078Z,100143.41
2019-05-03T09:12:25.274Z,100142.98
2019-05-03T09:15:15.155Z,100142.59
2019-05-03T09:20:17.246Z,100143.31
2019-05-03T09:26:04.625Z,100146.33
2019-05-03T09:28:52.793Z,100146.50
2019-05-03T09:31:40.541Z,100145.37
2019-05-03T09:36:56.397Z,100142.68
2019-05-03T09:39:44.579Z,100140.31
2019-05-03T09:42:15.462Z,100140.23
2019-05-03T09:47:31.604Z,100141.20
2019-05-03T09:50:02.104Z,100135.13
2019-05-03T09:52:30.316Z,100132.64
2019-05-03T09:57:49.345Z,100135.75
2019-05-03T10:00:57.649Z,100141.02
2019-05-03T10:03:45.356Z,100147.81
2019-05-03T10:06:33.129Z,100147.55
2019-05-03T10:09:01.519Z,100151.96
2019-05-03T10:11:49.182Z,100154.97
2019-05-03T10:20:44.657Z,100152.59
2019-05-03T10:23:32.382Z,100151.48
2019-05-03T10:26:20.094Z,100148.67
2019-05-03T10:29:07.612Z,100151.98
2019-05-03T10:31:55.136Z,100146.60
2019-05-03T10:40:50.729Z,100153.73
2019-05-03T10:46:12.785Z,100147.17
2019-05-03T10:49:00.681Z,100146.56
2019-05-03T10:54:18.163Z,100142.89
2019-05-03T10:57:05.703Z,100135.30
2019-05-03T10:59:55.426Z,100134.98
2019-05-03T11:03:01.834Z,100129.13
2019-05-03T11:05:49.348Z,100124.47
2019-05-03T11:08:17.763Z,100127.98
2019-05-03T11:11:05.889Z,100131.10
2019-05-03T11:13:54.781Z,100120.12
2019-05-03T11:19:29.750Z,100123.00
2019-05-03T11:21:58.148Z,100127.87
2019-05-03T11:24:45.687Z,100124.45
2019-05-03T11:27:35.272Z,100127.98
2019-05-03T11:36:05.844Z,100123.05
2019-05-03T11:38:53.371Z,100123.50
2019-05-03T11:44:49.335Z,100112.80
2019-05-03T11:47:17.721Z,100120.61
2019-05-03T11:50:06.232Z,100109.75
2019-05-03T11:52:55.417Z,100107.86
2019-05-03T11:55:26.597Z,100107.48
2019-05-03T11:58:32.378Z,100105.96
2019-05-03T12:01:20.494Z,100116.38
2019-05-03T12:04:08.341Z,100114.87
2019-05-03T12:06:55.984Z,100103.97
2019-05-03T12:11:58.687Z,100100.99
2019-05-03T12:14:46.439Z,100093.15
2019-05-03T12:20:43.401Z,100107.14
2019-05-03T12:23:13.823Z,100097.73
2019-05-03T12:25:45.530Z,100092.45
2019-05-03T12:28:32.145Z,100087.02
2019-05-03T12:31:33.474Z,100085.90
2019-05-03T12:33:49.928Z,100082.47
2019-05-03T12:36:39.123Z,100071.45
2019-05-03T12:41:57.662Z,100071.13
2019-05-03T12:44:46.071Z,100069.55
2019-05-03T12:47:15.436Z,100065.71
2019-05-03T12:49:45.131Z,100061.67
2019-05-03T12:52:36.663Z,100063.36
2019-05-03T12:57:58.590Z,100052.98
2019-05-03T13:01:06.915Z,100051.94
2019-05-03T13:06:14.927Z,100056.73
2019-05-03T13:09:25.214Z,100060.69
2019-05-03T13:14:45.380Z,100071.61
2019-05-03T13:17:52.118Z,100066.05
2019-05-03T13:21:00.432Z,100067.77
2019-05-03T13:23:28.840Z,100068.22
2019-05-03T13:26:16.380Z,100057.78
2019-05-03T13:28:45.643Z,100058.06
2019-05-03T13:31:16.128Z,100045.75
2019-05-03T13:33:45.530Z,100045.89
2019-05-03T13:36:15.318Z,100036.57
2019-05-03T13:39:13.960Z,100036.36
2019-05-03T13:41:35.059Z,100034.20
2019-05-03T13:44:05.254Z,100026.23
2019-05-03T13:46:55.220Z,100025.55
2019-05-03T13:49:26.415Z,100021.45
2019-05-03T13:51:54.644Z,100021.72
2019-05-03T13:54:45.139Z,100019.63
2019-05-03T13:57:31.671Z,100017.72
2019-05-03T14:00:00.080Z,100015.08
2019-05-03T14:05:15.937Z,100007.81
2019-05-03T14:08:05.064Z,100018.16
2019-05-03T14:10:35.738Z,100012.61
2019-05-03T14:13:05.455Z,100016.03
2019-05-03T14:15:34.869Z,100016.52
2019-05-03T14:18:05.932Z,100011.66
2019-05-03T14:20:54.946Z,100006.23
2019-05-03T14:28:45.190Z,99998.79
2019-05-03T14:31:14.892Z,99994.76
2019-05-03T14:34:02.533Z,99981.07
2019-05-03T14:36:30.937Z,99984.28
2019-05-03T14:41:47.023Z,99989.05
2019-05-03T14:44:18.064Z,99982.35
2019-05-03T14:47:06.294Z,99988.41
2019-05-03T14:49:34.703Z,99986.59
2019-05-03T14:52:05.410Z,99977.81
2019-05-03T14:57:41.408Z,99974.19
2019-05-03T15:00:49.721Z,99985.22
2019-05-03T15:03:37.535Z,99977.95
2019-05-03T15:06:05.937Z,99982.09
2019-05-03T15:08:54.738Z,99983.17
2019-05-03T15:11:23.580Z,99986.94
2019-05-03T15:13:51.962Z,99978.55
2019-05-03T15:16:39.610Z,99973.70
2019-05-03T15:19:08.004Z,99966.50
2019-05-03T15:21:36.402Z,99971.44
2019-05-03T15:24:25.203Z,99967.81
2019-05-03T15:27:12.960Z,99966.06
2019-05-03T15:29:41.355Z,99965.06
2019-05-03T15:32:09.755Z,99959.67
2019-05-03T15:34:57.413Z,99956.39
2019-05-03T15:37:25.813Z,99954.69
2019-05-03T15:40:15.442Z,99955.45
2019-05-03T15:45:51.693Z,99957.01
2019-05-03T15:48:39.208Z,99945.54
2019-05-03T15:53:41.422Z,99947.39
2019-05-03T16:01:18.623Z,99951.83
2019-05-03T16:03:47.015Z,99946.42
2019-05-03T16:06:34.673Z,99949.66
2019-05-03T16:12:11.271Z,99943.48
2019-05-03T16:14:39.674Z,99945.45
2019-05-03T16:17:27.199Z,99944.59
2019-05-03T16:19:55.866Z,99947.98
2019-05-03T16:22:25.712Z,99945.16
2019-05-03T16:25:14.263Z,99943.14
2019-05-03T16:28:04.656Z,99939.17
2019-05-03T16:33:27.293Z,99946.05
2019-05-03T16:35:51.833Z,99940.16
2019-05-03T16:38:39.362Z,99946.06
2019-05-03T16:41:26.880Z,99940.36
2019-05-03T16:43:55.276Z,99939.13
2019-05-03T16:46:23.680Z,99939.23
2019-05-03T16:49:11.415Z,99936.34
2019-05-03T16:51:59.160Z,99938.55
2019-05-03T16:55:07.468Z,99939.13
2019-05-03T16:57:35.871Z,99931.30
2019-05-03T17:00:45.138Z,99929.73
2019-05-03T17:08:34.641Z,99922.83
2019-05-03T17:11:07.715Z,99923.20
2019-05-03T17:13:36.116Z,99929.05
2019-05-03T17:16:06.702Z,99928.31
2019-05-03T17:18:35.310Z,99926.26
2019-05-03T17:23:51.483Z,99924.53
2019-05-03T17:26:19.899Z,99922.97
2019-05-03T17:28:48.300Z,99923.30
2019-05-03T17:31:16.698Z,99927.77
2019-05-03T17:33:51.533Z,99924.36
2019-05-03T17:36:15.216Z,99928.23
2019-05-03T17:39:04.429Z,99921.53
2019-05-03T17:41:51.980Z,99925.93
2019-05-03T17:44:39.504Z,99925.02
2019-05-03T17:47:07.909Z,99921.45
2019-05-03T17:49:55.559Z,99928.57
2019-05-03T18:01:11.344Z,99914.68
2019-05-03T18:04:06.592Z,99923.78
2019-05-03T18:09:37.200Z,99922.41
2019-05-03T18:14:55.442Z,99923.91
2019-05-03T18:17:24.891Z,99933.58
2019-05-03T18:19:55.214Z,99934.39
2019-05-03T18:22:24.354Z,99930.99
2019-05-03T18:24:54.638Z,99927.86
2019-05-03T18:27:44.482Z,99932.83
2019-05-03T18:30:54.585Z,99928.89
2019-05-03T18:33:24.712Z,99929.50
2019-05-03T18:35:54.647Z,99933.10
2019-05-03T18:40:58.937Z,99924.94
2019-05-03T18:43:46.496Z,99919.27
2019-05-03T18:46:34.005Z,99922.58
2019-05-03T18:49:21.717Z,99919.12
2019-05-03T18:51:50.101Z,99918.59
2019-05-03T18:54:18.596Z,99915.55
2019-05-03T18:57:06.376Z,99922.09
2019-05-03T18:59:55.571Z,99918.13
2019-05-03T19:05:15.173Z,99925.99
2019-05-03T19:08:04.474Z,99936.84
2019-05-03T19:13:27.324Z,99934.97
2019-05-03T19:16:35.143Z,99936.23
2019-05-03T19:19:41.959Z,99933.03
2019-05-03T19:25:18.650Z,99927.35
2019-05-03T19:33:48.606Z,99932.15
2019-05-03T19:38:50.694Z,99932.64
2019-05-03T19:41:38.355Z,99922.05
2019-05-03T19:44:26.000Z,99918.19
2019-05-03T19:46:54.464Z,99918.10
2019-05-03T19:49:42.111Z,99919.30
2019-05-03T19:54:59.638Z,99921.50
2019-05-03T19:57:47.513Z,99924.17
2019-05-03T20:00:57.449Z,99929.38
2019-05-03T20:06:34.613Z,99936.73
2019-05-03T20:09:22.090Z,99928.75
2019-05-03T20:11:50.532Z,99929.45
2019-05-03T20:14:18.925Z,99929.28
2019-05-03T20:17:06.913Z,99926.23
2019-05-03T20:19:54.565Z,99923.05
2019-05-03T20:28:45.139Z,99912.39
2019-05-03T20:31:35.345Z,99909.19
2019-05-03T20:34:05.342Z,99904.50
2019-05-03T20:36:54.872Z,99904.94
2019-05-03T20:42:49.489Z,99904.21
2019-05-03T20:48:31.954Z,99895.20
2019-05-03T20:51:19.592Z,99901.37
2019-05-03T20:53:47.990Z,99897.95
2019-05-03T20:56:35.725Z,99902.13
2019-05-03T20:59:05.458Z,99905.70
2019-05-03T21:01:54.593Z,99900.00
2019-05-03T21:04:24.709Z,99901.53
2019-05-03T21:06:55.201Z,99908.45
2019-05-03T21:09:45.441Z,99906.05
2019-05-03T21:12:14.900Z,99898.55
2019-05-03T21:14:45.222Z,99894.86
2019-05-03T21:17:34.517Z,99901.67
2019-05-03T21:22:57.054Z,99894.54
2019-05-03T21:31:38.464Z,99895.20
2019-05-03T21:34:25.975Z,99892.88
2019-05-03T21:37:15.131Z,99895.20
2019-05-03T21:39:45.315Z,99890.03
2019-05-03T21:44:48.006Z,99889.17
2019-05-03T21:49:53.368Z,99897.14
2019-05-03T21:52:40.893Z,99897.52
2019-05-03T21:55:49.212Z,99896.31
2019-05-03T22:03:40.230Z,99895.02
2019-05-03T22:06:08.608Z,99892.00
2019-05-03T22:08:37.011Z,99895.31
2019-05-03T22:11:25.172Z,99889.72
2019-05-03T22:17:04.558Z,99888.44
2019-05-03T22:19:34.345Z,99882.47
2019-05-03T22:22:22.226Z,99887.75
2019-05-03T22:28:18.266Z,99884.66
2019-05-03T22:31:06.899Z,99889.03
2019-05-03T22:33:55.189Z,99892.59
2019-05-03T22:36:44.422Z,99884.93
2019-05-03T22:42:19.462Z,99876.39
2019-05-03T22:45:07.104Z,99881.77
2019-05-03T22:47:55.067Z,99878.38
2019-05-03T22:50:44.862Z,99881.05
2019-05-03T22:53:14.770Z,99879.92
2019-05-03T22:58:31.764Z,99871.55
2019-05-03T23:01:00.172Z,99871.11
2019-05-03T23:06:26.384Z,99870.11
2019-05-03T23:09:15.838Z,99866.94
2019-05-03T23:14:18.626Z,99863.34
2019-05-03T23:17:06.342Z,99858.25
2019-05-03T23:19:53.853Z,99855.84
2019-05-03T23:22:41.373Z,99853.33
2019-05-03T23:28:17.848Z,99850.89
2019-05-03T23:30:46.245Z,99852.44
2019-05-03T23:33:34.487Z,99837.77
2019-05-03T23:36:33.236Z,99843.24
2019-05-03T23:38:54.589Z,99837.48
2019-05-03T23:44:10.797Z,99840.98
2019-05-03T23:47:19.114Z,99834.50
2019-05-03T23:49:47.501Z,99837.81
2019-05-03T23:52:55.820Z,99832.06
2019-05-03T23:58:13.295Z,99837.27
